createdAt,value
2017-11-23T00:00:51.517Z,10.68
2017-11-23T00:03:21.238Z,8.57
2017-11-23T00:05:51.153Z,11.55
2017-11-23T00:08:20.982Z,8.60
2017-11-23T00:10:51.030Z,12.60
2017-11-23T00:13:20.952Z,10.95
2017-11-23T00:15:50.522Z,15.93
2017-11-23T00:18:20.282Z,10.35
2017-11-23T00:20:50.185Z,10.90
2017-11-23T00:23:20.055Z,7.97
2017-11-23T00:25:49.969Z,13.80
2017-11-23T00:28:19.805Z,10.57
2017-11-23T00:30:49.787Z,10.95
2017-11-23T00:33:19.669Z,8.23
2017-11-23T00:35:49.517Z,6.50
2017-11-23T00:38:19.287Z,11.38
2017-11-23T00:40:49.095Z,7.95
2017-11-23T00:43:18.888Z,9.77
2017-11-23T00:45:48.770Z,11.82
2017-11-23T00:48:18.664Z,8.10
2017-11-23T00:50:48.862Z,9.15
2017-11-23T00:53:18.647Z,9.15
2017-11-23T00:55:48.556Z,9.75
2017-11-23T00:58:19.168Z,13.27
2017-11-23T01:00:49.755Z,14.25
2017-11-23T01:03:19.421Z,19.02
2017-11-23T01:05:49.327Z,10.40
2017-11-23T01:08:19.438Z,12.07
2017-11-23T01:10:49.387Z,11.02
2017-11-23T01:13:19.263Z,13.15
2017-11-23T01:15:49.197Z,8.60
2017-11-23T01:18:19.047Z,22.52
2017-11-23T01:20:49.043Z,8.73
2017-11-23T01:23:19.397Z,8.52
2017-11-23T01:25:49.371Z,12.25
2017-11-23T01:28:19.599Z,11.57
2017-11-23T01:30:49.526Z,13.98
2017-11-23T01:33:19.358Z,9.35
2017-11-23T01:35:49.150Z,10.65
2017-11-23T01:38:19.004Z,10.43
2017-11-23T01:40:48.935Z,11.40
2017-11-23T01:43:18.275Z,7.10
2017-11-23T01:45:47.920Z,8.10
2017-11-23T01:48:17.597Z,10.23
2017-11-23T01:50:47.210Z,12.65
2017-11-23T01:53:16.943Z,11.35
2017-11-23T01:55:46.701Z,11.55
2017-11-23T01:58:15.878Z,12.52
2017-11-23T02:00:45.765Z,10.25
2017-11-23T02:03:15.470Z,12.15
2017-11-23T02:05:45.385Z,9.57
2017-11-23T02:08:15.205Z,14.82
2017-11-23T02:10:44.938Z,16.58
2017-11-23T02:13:14.550Z,14.25
2017-11-23T02:15:44.312Z,12.18
2017-11-23T02:18:13.947Z,13.80
2017-11-23T02:20:43.390Z,9.82
2017-11-23T02:23:13.358Z,14.75
2017-11-23T02:25:43.118Z,12.82
2017-11-23T02:28:12.554Z,13.43
2017-11-23T02:30:41.934Z,11.07
2017-11-23T02:33:11.673Z,9.48
2017-11-23T02:35:41.512Z,12.37
2017-11-23T02:38:11.436Z,8.90
2017-11-23T02:40:40.962Z,10.70
2017-11-23T02:43:10.465Z,10.68
2017-11-23T02:45:39.660Z,14.93
2017-11-23T02:48:09.204Z,10.35
2017-11-23T02:50:38.826Z,17.40
2017-11-23T02:53:08.504Z,19.15
2017-11-23T02:55:38.421Z,21.80
2017-11-23T02:58:07.939Z,19.50
2017-11-23T03:00:37.741Z,20.25
2017-11-23T03:03:07.666Z,30.33
2017-11-23T03:05:45.943Z,51.75
2017-11-23T03:08:16.611Z,41.03
2017-11-23T03:10:46.823Z,95.30
2017-11-23T03:13:16.695Z,116.12
2017-11-23T03:15:46.538Z,57.97
2017-11-23T03:18:16.548Z,61.13
2017-11-23T03:20:46.210Z,136.25
2017-11-23T03:23:15.987Z,90.93
2017-11-23T03:25:45.902Z,50.00
2017-11-23T03:28:15.816Z,47.30
2017-11-23T03:30:45.620Z,82.80
2017-11-23T03:33:15.474Z,50.22
2017-11-23T03:35:45.312Z,82.57
2017-11-23T03:38:15.163Z,55.00
2017-11-23T03:40:44.898Z,45.25
2017-11-23T03:43:14.874Z,42.70
2017-11-23T03:45:45.092Z,109.12
2017-11-23T03:48:14.883Z,48.78
2017-11-23T03:50:44.901Z,52.67
2017-11-23T03:53:14.556Z,59.67
2017-11-23T03:55:44.920Z,103.38
2017-11-23T03:58:14.827Z,37.30
2017-11-23T04:00:44.427Z,69.10
2017-11-23T04:03:13.755Z,62.35
2017-11-23T04:05:50.814Z,75.40
2017-11-23T04:08:23.093Z,38.08
2017-11-23T04:10:53.252Z,34.40
2017-11-23T04:13:35.089Z,61.17
2017-11-23T04:16:07.120Z,123.55
2017-11-23T04:18:36.998Z,66.82
2017-11-23T04:21:06.551Z,65.68
2017-11-23T04:23:36.209Z,31.30
2017-11-23T04:26:05.715Z,80.93
2017-11-23T04:28:35.621Z,77.37
2017-11-23T04:31:05.521Z,95.18
2017-11-23T04:33:35.446Z,30.90
2017-11-23T04:36:05.879Z,94.70
2017-11-23T04:38:35.801Z,39.47
2017-11-23T04:41:05.400Z,65.55
2017-11-23T04:43:34.877Z,68.95
2017-11-23T04:46:04.745Z,39.30
2017-11-23T04:48:34.669Z,36.83
2017-11-23T04:51:04.515Z,35.10
2017-11-23T04:53:34.238Z,49.45
2017-11-23T04:56:03.902Z,87.55
2017-11-23T04:58:33.478Z,32.97
2017-11-23T05:01:02.972Z,35.60
2017-11-23T05:03:32.892Z,34.42
2017-11-23T05:06:02.751Z,34.20
2017-11-23T05:08:32.516Z,24.02
2017-11-23T05:11:02.599Z,45.50
2017-11-23T05:13:32.509Z,23.45
2017-11-23T05:16:02.369Z,22.23
2017-11-23T05:18:32.222Z,69.57
2017-11-23T05:21:16.560Z,57.03
2017-11-23T05:23:48.247Z,55.55
2017-11-23T05:26:18.123Z,49.20
2017-11-23T05:28:47.877Z,83.00
2017-11-23T05:31:18.023Z,46.10
2017-11-23T05:33:47.991Z,46.37
2017-11-23T05:36:18.061Z,44.22
2017-11-23T05:38:47.896Z,31.42
2017-11-23T05:41:26.648Z,30.45
2017-11-23T05:43:58.792Z,35.22
2017-11-23T05:46:28.741Z,31.15
2017-11-23T05:48:58.657Z,21.37
2017-11-23T05:51:28.461Z,33.03
2017-11-23T05:53:58.419Z,18.35
2017-11-23T05:56:28.140Z,41.97
2017-11-23T05:58:58.256Z,59.78
2017-11-23T06:01:28.132Z,20.90
2017-11-23T06:06:34.563Z,26.67
2017-11-23T06:09:03.770Z,18.92
2017-11-23T06:11:33.705Z,29.35
2017-11-23T06:14:03.599Z,38.40
2017-11-23T06:16:33.433Z,19.20
2017-11-23T06:19:03.387Z,29.02
2017-11-23T06:21:42.770Z,29.05
2017-11-23T06:24:12.687Z,24.05
2017-11-23T06:26:46.835Z,27.67
2017-11-23T06:41:50.164Z,54.65
2017-11-23T06:44:22.673Z,56.45
2017-11-23T06:46:52.998Z,25.95
2017-11-23T06:49:28.173Z,21.52
2017-11-23T06:51:59.007Z,53.90
2017-11-23T06:54:29.219Z,36.70
2017-11-23T06:57:03.826Z,22.25
2017-11-23T06:59:33.934Z,73.12
2017-11-23T07:02:04.020Z,73.47
2017-11-23T07:04:34.851Z,19.90
2017-11-23T07:07:06.596Z,17.90
2017-11-23T07:09:36.832Z,127.28
2017-11-23T07:12:09.672Z,32.88
2017-11-23T07:14:39.645Z,48.60
2017-11-23T07:17:10.128Z,115.07
2017-11-23T07:19:39.907Z,34.78
2017-11-23T07:22:10.032Z,65.70
2017-11-23T07:24:40.865Z,29.48
2017-11-23T07:27:10.766Z,59.17
2017-11-23T07:29:40.690Z,36.53
2017-11-23T07:32:12.092Z,45.60
2017-11-23T07:34:42.261Z,60.38
2017-11-23T07:37:13.163Z,45.92
2017-11-23T07:39:43.507Z,58.10
2017-11-23T07:42:15.938Z,39.55
2017-11-23T07:44:46.093Z,32.05
2017-11-23T07:47:18.757Z,41.67
2017-11-23T07:49:48.654Z,32.90
2017-11-23T07:52:18.455Z,57.70
2017-11-23T07:54:49.044Z,42.30
2017-11-23T07:57:19.382Z,65.10
2017-11-23T07:59:50.327Z,74.25
2017-11-23T08:02:22.880Z,38.53
2017-11-23T08:04:52.813Z,40.92
2017-11-23T08:07:26.682Z,17.12
2017-11-23T08:09:57.148Z,29.65
2017-11-23T08:12:27.009Z,24.45
2017-11-23T08:14:56.888Z,63.03
2017-11-23T08:17:26.438Z,16.95
2017-11-23T08:19:56.401Z,15.95
2017-11-23T08:22:26.828Z,15.15
2017-11-23T08:24:56.779Z,20.67
2017-11-23T08:27:26.734Z,27.02
2017-11-23T08:29:56.354Z,33.63
2017-11-23T08:32:30.519Z,21.27
2017-11-23T08:35:01.541Z,34.97
2017-11-23T08:37:31.997Z,22.30
2017-11-23T08:40:03.269Z,15.35
2017-11-23T08:42:33.279Z,13.50
2017-11-23T08:45:03.954Z,11.05
2017-11-23T08:47:34.064Z,148.52
2017-11-23T08:50:03.876Z,12.25
2017-11-23T08:52:33.882Z,9.27
2017-11-23T08:55:03.777Z,11.10
2017-11-23T08:57:33.630Z,9.32
2017-11-23T09:00:03.650Z,9.77
2017-11-23T09:02:33.540Z,9.85
2017-11-23T09:05:06.503Z,9.05
2017-11-23T09:07:36.544Z,16.15
2017-11-23T09:10:06.765Z,14.25
2017-11-23T09:12:40.697Z,13.02
2017-11-23T09:15:10.420Z,13.73
2017-11-23T09:17:40.694Z,13.93
2017-11-23T09:20:11.161Z,24.42
2017-11-23T09:22:41.234Z,43.72
2017-11-23T09:25:11.412Z,24.58
2017-11-23T09:27:41.236Z,13.50
2017-11-23T09:30:11.986Z,11.63
2017-11-23T09:32:42.098Z,12.20
2017-11-23T09:35:12.344Z,14.80
2017-11-23T09:37:42.474Z,16.00
2017-11-23T09:40:12.842Z,14.60
2017-11-23T09:42:42.900Z,12.73
2017-11-23T09:45:13.567Z,10.82
2017-11-23T09:47:43.763Z,17.75
2017-11-23T09:50:13.541Z,16.00
2017-11-23T09:52:43.352Z,12.32
2017-11-23T09:55:13.212Z,15.98
2017-11-23T09:57:44.622Z,12.73
2017-11-23T10:00:14.569Z,15.20
2017-11-23T10:02:45.926Z,14.02
2017-11-23T10:05:15.755Z,18.15
2017-11-23T10:07:45.571Z,14.93
2017-11-23T10:10:15.325Z,16.17
2017-11-23T10:12:45.120Z,11.77
2017-11-23T10:15:15.560Z,20.20
2017-11-23T10:17:45.223Z,12.02
2017-11-23T10:20:15.054Z,19.37
2017-11-23T10:22:44.944Z,16.08
2017-11-23T10:25:14.819Z,18.12
2017-11-23T10:27:44.591Z,19.02
2017-11-23T10:30:14.586Z,23.70
2017-11-23T10:32:45.378Z,22.75
2017-11-23T10:35:15.263Z,18.05
2017-11-23T10:37:45.234Z,18.17
2017-11-23T10:40:15.865Z,18.30
2017-11-23T10:42:45.762Z,18.33
2017-11-23T10:45:15.521Z,20.80
2017-11-23T10:47:53.655Z,17.12
2017-11-23T10:50:23.376Z,12.67
2017-11-23T10:52:53.714Z,13.33
2017-11-23T10:55:26.087Z,14.90
2017-11-23T10:57:56.017Z,14.97
2017-11-23T11:00:25.910Z,15.60
2017-11-23T11:02:55.522Z,12.93
2017-11-23T11:05:25.382Z,16.30
2017-11-23T11:07:55.711Z,16.13
2017-11-23T11:10:25.740Z,10.37
2017-11-23T11:12:56.150Z,11.00
2017-11-23T11:15:27.460Z,11.93
2017-11-23T11:17:57.627Z,11.00
2017-11-23T11:20:29.779Z,9.50
2017-11-23T11:22:59.825Z,10.20
2017-11-23T11:25:31.930Z,16.77
2017-11-23T11:28:01.878Z,9.37
2017-11-23T11:30:31.469Z,8.40
2017-11-23T11:33:01.179Z,12.57
2017-11-23T11:35:30.830Z,9.20
2017-11-23T11:38:00.411Z,11.13
2017-11-23T11:40:32.050Z,15.73
2017-11-23T11:43:01.953Z,20.93
2017-11-23T11:45:32.731Z,28.90
2017-11-23T11:48:02.446Z,29.57
2017-11-23T11:50:32.255Z,24.90
2017-11-23T11:53:02.095Z,27.97
2017-11-23T11:55:31.657Z,31.20
2017-11-23T11:58:02.562Z,18.60
2017-11-23T12:00:43.440Z,14.53
2017-11-23T12:03:16.251Z,14.53
2017-11-23T12:05:46.031Z,12.40
2017-11-23T12:08:15.765Z,11.37
2017-11-23T12:10:45.619Z,11.97
2017-11-23T12:13:15.696Z,10.47
2017-11-23T12:15:56.640Z,12.03
2017-11-23T12:18:33.334Z,14.20
2017-11-23T12:21:26.809Z,16.83
2017-11-23T12:24:07.419Z,15.80
2017-11-23T12:26:36.960Z,16.33
2017-11-23T12:29:17.959Z,15.73
2017-11-23T12:31:47.511Z,16.63
2017-11-23T12:34:17.245Z,27.60
2017-11-23T12:36:47.496Z,32.67
2017-11-23T12:39:18.050Z,34.03
2017-11-23T12:41:47.990Z,32.57
2017-11-23T12:44:17.892Z,29.73
2017-11-23T12:46:47.963Z,31.83
2017-11-23T12:49:17.905Z,35.87
2017-11-23T12:51:47.813Z,31.20
2017-11-23T12:54:17.713Z,39.67
2017-11-23T12:56:47.949Z,33.40
2017-11-23T12:59:17.699Z,58.40
2017-11-23T13:01:48.081Z,32.37
2017-11-23T13:04:18.980Z,32.50
2017-11-23T13:06:48.588Z,31.70
2017-11-23T13:09:18.638Z,41.97
2017-11-23T13:11:49.217Z,36.60
2017-11-23T13:14:19.498Z,52.93
2017-11-23T13:16:50.063Z,33.43
2017-11-23T13:19:19.595Z,35.27
2017-11-23T13:21:49.653Z,31.80
2017-11-23T13:24:21.064Z,32.30
2017-11-23T13:26:51.376Z,28.80
2017-11-23T13:29:21.639Z,37.73
2017-11-23T13:31:51.825Z,35.37
2017-11-23T13:34:21.944Z,29.07
2017-11-23T13:36:52.781Z,32.70
2017-11-23T13:39:22.481Z,34.40
2017-11-23T13:41:52.197Z,34.47
2017-11-23T13:44:21.733Z,30.43
2017-11-23T13:46:51.485Z,32.67
2017-11-23T13:49:21.678Z,38.93
2017-11-23T13:51:51.558Z,35.53
2017-11-23T13:54:21.327Z,33.23
2017-11-23T14:02:00.100Z,35.40
2017-11-23T14:04:29.803Z,31.40
2017-11-23T14:06:59.770Z,41.60
2017-11-23T14:09:29.582Z,25.70
2017-11-23T14:11:59.097Z,37.80
2017-11-23T14:14:29.027Z,34.20
2017-11-23T14:16:59.101Z,28.87
2017-11-23T14:19:28.739Z,30.70
2017-11-23T14:21:59.025Z,37.40
2017-11-23T14:24:29.060Z,34.63
2017-11-23T14:26:59.456Z,31.67
2017-11-23T14:29:33.601Z,34.87
2017-11-23T14:32:03.274Z,41.87
2017-11-23T14:34:32.838Z,33.37
2017-11-23T14:37:02.487Z,49.03
2017-11-23T14:39:32.373Z,54.27
2017-11-23T14:42:02.586Z,51.42
2017-11-23T14:44:33.195Z,47.90
2017-11-23T14:47:03.260Z,55.45
2017-11-23T14:49:33.183Z,60.65
2017-11-23T14:52:03.240Z,70.90
2017-11-23T14:54:33.842Z,58.90
2017-11-23T14:57:03.688Z,63.97
2017-11-23T14:59:35.214Z,54.53
2017-11-23T15:02:06.274Z,55.12
2017-11-23T15:04:36.205Z,64.15
2017-11-23T15:07:06.120Z,60.72
2017-11-23T15:12:14.097Z,62.35
2017-11-23T15:14:45.593Z,64.55
2017-11-23T15:17:16.002Z,52.62
2017-11-23T15:19:48.993Z,57.42
2017-11-23T15:22:19.162Z,52.53
2017-11-23T15:24:49.408Z,58.10
2017-11-23T15:27:19.476Z,52.80
2017-11-23T15:29:49.416Z,57.97
2017-11-23T15:32:19.403Z,57.55
2017-11-23T15:34:49.415Z,55.17
2017-11-23T15:37:19.440Z,66.65
2017-11-23T15:39:50.203Z,71.93
2017-11-23T15:42:21.044Z,73.40
2017-11-23T15:44:50.954Z,74.05
2017-11-23T15:47:20.932Z,75.82
2017-11-23T15:49:52.799Z,77.12
2017-11-23T15:52:25.097Z,77.55
2017-11-23T15:55:02.571Z,78.03
2017-11-23T15:57:48.052Z,79.12
2017-11-23T16:00:17.954Z,82.35
2017-11-23T16:02:50.671Z,72.87
2017-11-23T16:05:29.405Z,71.45
2017-11-23T16:07:59.315Z,77.62
2017-11-23T16:10:30.162Z,66.18
2017-11-23T16:13:00.360Z,70.50
2017-11-23T16:15:30.700Z,72.95
2017-11-23T16:18:00.721Z,67.55
2017-11-23T16:20:30.602Z,66.55
2017-11-23T16:23:00.492Z,64.12
2017-11-23T16:25:30.620Z,76.70
2017-11-23T16:28:00.343Z,77.43
2017-11-23T16:30:30.053Z,75.45
2017-11-23T16:33:00.154Z,86.30
2017-11-23T16:35:31.199Z,90.53
2017-11-23T16:38:01.488Z,73.53
2017-11-23T16:40:36.843Z,77.75
2017-11-23T16:43:11.751Z,78.53
2017-11-23T16:48:47.706Z,75.80
2017-11-23T16:51:26.244Z,87.25
2017-11-23T16:57:29.464Z,81.80
2017-11-23T17:08:55.673Z,83.12
2017-11-23T17:14:46.537Z,80.53
2017-11-23T17:17:36.200Z,79.70
2017-11-23T17:22:55.714Z,68.45
2017-11-23T17:25:34.069Z,81.95
2017-11-23T17:28:08.372Z,74.82
2017-11-23T17:35:49.008Z,65.00
2017-11-23T17:43:26.882Z,81.60
2017-11-23T17:51:14.127Z,68.85
2017-11-23T17:53:44.599Z,69.93
2017-11-23T17:56:17.004Z,73.07
2017-11-23T17:58:47.100Z,72.87
2017-11-23T18:03:54.411Z,66.95
2017-11-23T18:06:24.852Z,66.30
2017-11-23T18:08:55.992Z,70.07
2017-11-23T18:11:26.099Z,76.50
2017-11-23T18:16:31.141Z,57.72
2017-11-23T18:19:05.926Z,69.00
2017-11-23T18:21:35.885Z,69.35
2017-11-23T18:24:06.263Z,61.58
2017-11-23T18:26:36.263Z,70.80
2017-11-23T18:29:06.318Z,78.28
2017-11-23T18:31:39.824Z,76.60
2017-11-23T18:34:09.728Z,67.28
2017-11-23T18:36:39.702Z,75.45
2017-11-23T18:39:09.751Z,64.55
2017-11-23T18:41:40.387Z,74.25
2017-11-23T18:44:11.176Z,84.68
2017-11-23T18:46:44.931Z,68.32
2017-11-23T18:49:15.492Z,83.65
2017-11-23T18:51:53.452Z,75.15
2017-11-23T18:54:24.212Z,71.30
2017-11-23T18:56:55.184Z,76.55
2017-11-23T18:59:30.338Z,83.40
2017-11-23T19:02:00.319Z,66.68
2017-11-23T19:04:30.534Z,84.97
2017-11-23T19:07:00.733Z,81.80
2017-11-23T19:09:34.921Z,77.43
2017-11-23T19:12:04.849Z,70.57
2017-11-23T19:14:34.769Z,76.07
2017-11-23T19:17:04.581Z,71.93
2017-11-23T19:19:34.615Z,74.75
2017-11-23T19:22:04.506Z,77.55
2017-11-23T19:24:34.579Z,76.82
2017-11-23T19:27:04.509Z,73.95
2017-11-23T19:29:35.833Z,80.32
2017-11-23T19:32:05.836Z,70.55
2017-11-23T19:34:37.320Z,77.07
2017-11-23T19:37:10.364Z,78.75
2017-11-23T19:39:40.229Z,85.22
2017-11-23T19:42:10.445Z,64.37
2017-11-23T19:44:41.696Z,59.00
2017-11-23T19:47:11.646Z,63.45
2017-11-23T19:49:41.505Z,57.10
2017-11-23T19:52:11.328Z,68.32
2017-11-23T19:54:41.603Z,63.65
2017-11-23T19:57:11.533Z,60.28
2017-11-23T19:59:41.682Z,58.00
2017-11-23T20:02:11.560Z,61.35
2017-11-23T20:04:41.798Z,56.37
2017-11-23T20:07:11.587Z,51.13
2017-11-23T20:09:41.372Z,51.15
2017-11-23T20:12:11.040Z,59.08
2017-11-23T20:14:40.908Z,54.15
2017-11-23T20:17:10.812Z,46.33
2017-11-23T20:19:40.989Z,60.85
2017-11-23T20:22:10.884Z,55.35
2017-11-23T20:24:40.751Z,64.00
2017-11-23T20:27:10.673Z,49.80
2017-11-23T20:29:40.713Z,63.90
2017-11-23T20:32:10.805Z,58.75
2017-11-23T20:34:40.944Z,58.95
2017-11-23T20:37:10.949Z,60.25
2017-11-23T20:39:41.042Z,47.60
2017-11-23T20:42:10.959Z,54.85
2017-11-23T20:44:40.840Z,54.05
2017-11-23T20:47:11.593Z,57.38
2017-11-23T20:49:41.560Z,55.60
2017-11-23T20:52:11.427Z,57.60
2017-11-23T20:54:41.353Z,58.60
2017-11-23T20:57:11.288Z,52.17
2017-11-23T20:59:41.168Z,50.72
2017-11-23T21:02:11.078Z,54.92
2017-11-23T21:04:40.983Z,56.10
2017-11-23T21:07:10.656Z,56.05
2017-11-23T21:09:41.025Z,52.20
2017-11-23T21:12:10.945Z,59.50
2017-11-23T21:14:41.583Z,54.25
2017-11-23T21:17:13.821Z,61.55
2017-11-23T21:19:43.658Z,62.42
2017-11-23T21:22:14.134Z,51.35
2017-11-23T21:24:44.363Z,48.47
2017-11-23T21:27:14.434Z,55.72
2017-11-23T21:29:44.281Z,51.05
2017-11-23T21:32:22.048Z,49.88
2017-11-23T21:34:55.084Z,48.92
2017-11-23T21:37:25.176Z,50.63
2017-11-23T21:39:55.121Z,51.35
2017-11-23T21:42:31.038Z,50.45
2017-11-23T21:45:02.765Z,50.92
2017-11-23T21:47:32.706Z,53.75
2017-11-23T21:50:03.105Z,50.63
2017-11-23T21:52:35.318Z,45.55
2017-11-23T21:55:06.401Z,48.75
2017-11-23T21:57:36.308Z,51.15
2017-11-23T22:00:06.203Z,44.58
2017-11-23T22:02:36.508Z,44.55
2017-11-23T22:05:06.384Z,44.78
2017-11-23T22:07:36.598Z,51.17
2017-11-23T22:10:06.544Z,54.13
2017-11-23T22:12:36.451Z,44.00
2017-11-23T22:15:07.077Z,41.08
2017-11-23T22:17:37.139Z,41.17
2017-11-23T22:20:07.147Z,42.58
2017-11-23T22:22:37.098Z,41.33
2017-11-23T22:25:07.040Z,42.05
2017-11-23T22:27:38.627Z,54.75
2017-11-23T22:32:44.860Z,49.25
2017-11-23T22:35:14.955Z,47.28
2017-11-23T22:37:45.035Z,49.75
2017-11-23T22:40:18.981Z,52.42
2017-11-23T22:42:48.847Z,46.75
2017-11-23T22:45:18.721Z,49.40
2017-11-23T22:47:48.700Z,47.15
2017-11-23T22:50:19.357Z,48.13
2017-11-23T22:52:49.751Z,53.60
2017-11-23T22:55:19.579Z,44.90
2017-11-23T22:57:49.629Z,53.58
2017-11-23T23:00:19.462Z,43.78
2017-11-23T23:02:49.155Z,43.72
2017-11-23T23:05:19.330Z,36.35
2017-11-23T23:07:49.227Z,48.60
2017-11-23T23:10:19.205Z,47.28
2017-11-23T23:12:48.890Z,44.55
2017-11-23T23:15:18.714Z,46.97
2017-11-23T23:17:48.603Z,45.47
2017-11-23T23:20:18.529Z,42.85
2017-11-23T23:22:52.552Z,45.08
2017-11-23T23:25:22.795Z,55.00
2017-11-23T23:27:54.117Z,44.38
2017-11-23T23:30:27.678Z,54.03
2017-11-23T23:32:57.754Z,45.12
2017-11-23T23:35:27.814Z,44.65
2017-11-23T23:37:57.730Z,48.08
2017-11-23T23:40:27.635Z,48.87
2017-11-23T23:42:57.759Z,43.55
2017-11-23T23:45:27.645Z,43.95
2017-11-23T23:47:57.639Z,47.97
2017-11-23T23:50:27.546Z,57.83
2017-11-23T23:52:57.674Z,44.97
2017-11-23T23:55:27.500Z,53.75
2017-11-23T23:57:57.368Z,50.40
